Goldfield, Nevada Weather observations

Data are for observation ending at time listed.
 Day   Time    Ave.   Ave.  Ave.  Vector   Max.   Stn.    Total    Solar   Ave.  
  of    of     Air    Rel.  Wind   Wind    Wind   Baro.  Precip.   Rad.    Soil  
Year   Day     Temp.  Hum.  Speed  Dir.    Gust   Pres.                    Temp. 
2016   (PST)    F      %     mph   deg.    mph     mb.     in.     W/m2     F   
------------------------------------------------------------------------------
 151   19:30   72.3    16    9.4   321     13.8   827.8    0.00       0    75.5
 151   19:40   71.1    17    9.5   312     14.6   827.9    0.00       0    75.3
 151   19:50   70.8    17   11.4   316     16.2   828.0    0.00       0    75.3
 151   20:00   71.0    16   12.1   316     17.9   828.1    0.00       0    74.9
 151   20:10   69.8    17    9.0   310     13.2   828.2    0.00       0    74.8
 151   20:20   68.4    18    7.8   305     12.1   828.4    0.00       0    74.7
 151   20:30   67.2    20    7.4   303     11.3   828.5    0.00       0    74.4
 151   20:40   66.5    20    7.2   309      9.2   828.7    0.00       0    74.2
 151   20:50   66.3    20    7.9   313     11.2   828.8    0.00       0    74.0
 151   21:00   66.3    20    7.5   313     10.5   828.9    0.00       0    73.8
 151   21:10   65.9    21    7.5   315     10.8   829.1    0.00       0    73.7
 151   21:20   66.3    21    9.1   313     15.6   829.1    0.00       0    73.4
 151   21:30   68.2    20   11.6   319     17.2   829.1    0.00       0    73.2
 151   21:40   69.1    19   13.4   322     22.3   829.1    0.00       0    72.9
 151   21:50   68.5    19   11.3   321     22.0   829.1    0.00       0    72.9
 151   22:00   67.9    20    9.9   326     15.6   829.1    0.00       0    72.7
 151   22:10   67.3    20   11.4   320     17.8   829.1    0.00       0    72.3
 151   22:20   66.1    21    8.9   313     13.1   829.1    0.00       0    72.4
 151   22:30   65.2    22    8.7   309     12.9   829.1    0.00       0    72.1
 151   22:40   64.8    22    9.1   302     12.2   829.1    0.00       0    71.9
 151   22:50   65.2    21    9.5   300     13.1   829.1    0.00       0    71.8
 151   23:00   66.0    21    9.2   297     15.7   829.1    0.00       0    71.5
 151   23:10   66.1    21    9.1   297     13.8   829.1    0.00       0    71.4
 151   23:20   65.8    22    6.8   310     11.8   829.1    0.00       0    71.1
 151   23:30   63.9    23    2.7     5      4.5   829.1    0.00       0    71.1
 151   23:40   63.7    23    4.6   338      8.4   829.1    0.00       0    70.8
 151   23:50   64.0    23    3.9   338      5.8   829.1    0.00       0    70.7
 152    0:00   62.3    25    3.7   310      5.4   829.1    0.00       0    70.5
 152    0:10   61.2    26    2.3   293      4.6   829.1    0.00       0    70.5
 152    0:20   60.2    27    2.7   289      4.7   829.1    0.00       0    70.3
 152    0:30   59.3    28    0.6   308      2.3   829.2    0.00       0    70.1
 152    0:40   58.7    28    0.6   290      1.9   829.2    0.00       0    69.9
 152    0:50   58.5    28    2.3   301      4.2   829.2    0.00       0    69.7
 152    1:00   58.0    29    4.7   301      5.9   829.2    0.00       0    69.6
 152    1:10   57.9    29    4.3   294      6.1   829.2    0.00       0    69.3
 152    1:20   58.5    29    5.2   296      6.5   829.2    0.00       0    69.2
 152    1:30   58.4    29    4.5   313      6.6   829.2    0.00       0    69.0
 152    1:40   57.4    30    4.7   303      6.4   829.2    0.00       0    68.8
 152    1:50   58.2    29    4.3   292      6.3   829.2    0.00       0    68.7
 152    2:00   59.1    28    4.6   293      6.5   829.1    0.00       0    68.5
 152    2:10   59.8    27    6.0   297     10.0   829.2    0.00       0    68.4
 152    2:20   60.8    26    5.9   296     10.1   829.2    0.00       0    68.2
 152    2:30   60.4    27    3.5   307      7.4   829.3    0.00       0    68.0
 152    2:40   58.5    29    1.7   316      5.2   829.2    0.00       0    67.9
 152    2:50   57.8    30    3.1   321      5.3   829.3    0.00       0    67.9
 152    3:00   56.8    32    2.4    55      4.7   829.4    0.00       0    67.6
 152    3:10   57.0    31    1.6    40      3.5   829.5    0.00       0    67.4
 152    3:20   57.5    31    1.3   356      3.6   829.5    0.00       0    67.2
 152    3:30   56.9    31    1.0     9      3.0   829.6    0.00       0    67.2
 152    3:40   55.8    32    1.4   132      2.3   829.7    0.00       0    67.0
 152    3:50   54.8    34    0.9   119      1.7   829.8    0.00       0    66.8
 152    4:00   54.1    35    0.5   100      1.2   829.8    0.00       0    66.7
 152    4:10   53.6    35    1.2   150      2.3   829.8    0.00       0    66.6
 152    4:20   53.9    34    0.7   220      2.4   829.9    0.00       0    66.3
 152    4:30   54.0    35    0.0    94      0.6   829.9    0.00       2    66.3
 152    4:40   53.2    36    0.3    85      1.2   829.9    0.00       7    66.1
 152    4:50   53.2    36    0.9   107      1.5   829.9    0.00      26    65.9
 152    5:00   55.3    33    0.4    52      1.2   830.1    0.00      50    65.9
 152    5:10   57.1    32    0.7   322      2.1   830.2    0.00      72    65.7
 152    5:20   58.7    31    1.3   301      3.0   830.3    0.00     106    65.5
 152    5:30   61.4    29    0.6    90      2.0   830.3    0.00     141    65.4
 152    5:40   62.4    28    1.1    61      2.4   830.4    0.00     177    65.3
 152    5:50   63.4    27    1.3    40      2.0   830.4    0.00     215    65.2
 152    6:00   63.9    27    1.3    31      2.6   830.4    0.00     252    65.0
 152    6:10   64.5    26    1.9    23      4.5   830.4    0.00     291    65.0
 152    6:20   64.6    26    2.1    20      4.0   830.4    0.00     329    64.9
 152    6:30   65.7    25    2.9    29      5.2   830.4    0.00     363    64.8
 152    6:40   65.8    25    3.0   359      5.2   830.5    0.00     402    64.8
 152    6:50   65.9    24    3.4    15      5.8   830.5    0.00     420    64.8
 152    7:00   66.7    23    2.5    26      4.5   830.5    0.00     456    64.8
 152    7:10   68.0    22    2.6    25      6.1   830.6    0.00     501    64.8
 152    7:20   68.5    22    2.8    17      5.6   830.6    0.00     539    64.9
 152    7:30   68.5    22    3.5     8      6.2   830.7    0.00     574    65.0
 152    7:40   68.8    22    5.4   360     10.6   830.6    0.00     606    65.0
 152    7:50   68.9    21    7.4   338     11.9   830.5    0.00     647    65.2
 152    8:00   69.4    21    8.3   333     12.9   830.4    0.00     680    65.4
 152    8:10   70.7    20    9.1   327     13.6   830.4    0.00     706    65.6
 152    8:20   71.1    19    8.3   327     12.7   830.4    0.00     739    65.8
 152    8:30   71.1    19    8.7   337     14.5   830.3    0.00     774    66.3
 152    8:40   71.5    19    8.5   327     13.4   830.2    0.00     802    66.5
 152    8:50   71.4    19    7.1   352     15.2   830.1    0.00     832    66.8
 152    9:00   72.4    18    7.3   331     13.3   830.1    0.00     855    67.2
 152    9:10   73.5    17    5.6   333     12.2   830.0    0.00     878    67.6
 152    9:20   73.2    16    7.3   351     12.7   830.0    0.00     903    68.1
 152    9:30   73.5    16    7.7   331     17.4   830.0    0.00     920    68.5
 152    9:40   73.7    16    8.7   350     17.1   829.9    0.00     944    68.8
 152    9:50   74.6    16    6.8   330     13.8   829.9    0.00     963    69.4
 152   10:00   74.9    16    5.9   358     11.8   829.8    0.00     981    70.0
 152   10:10   75.8    16    8.4   334     14.7   829.7    0.00     997    70.3
 152   10:20   75.0    16    9.7   338     16.4   829.8    0.00    1015    71.2
 152   10:30   74.8    16    4.8     9     10.4   829.7    0.00    1030    71.7
 152   10:40   75.8    15    8.3   339     17.3   829.6    0.00    1041    72.4
 152   10:50   76.2    14   10.3   332     16.1   829.5    0.00    1010    73.1
 152   11:00   76.7    14    8.8   328     17.6   829.5    0.00    1055    73.8
 152   11:10   76.7    14    7.1   357     18.2   829.4    0.00    1057    74.3
 152   11:20   78.4    14    8.6   315     16.2   829.3    0.00    1069    75.0
 152   11:30   79.1    14    9.8   320     18.1   829.2    0.00    1070    75.8
 152   11:40   78.9    14   11.2   315     19.6   829.2    0.00    1077    76.2
 152   11:50   78.4    14    6.8   349     18.0   829.0    0.00    1071    76.9
 152   12:00   78.3    14    9.6   339     19.5   828.9    0.00    1078    77.3
 152   12:10   80.0    14   11.0   316     18.9   828.8    0.00    1078    78.0
 152   12:20   79.2    14   11.1   320     20.5   828.7    0.00    1068    78.5
 152   12:30   80.1    12   10.9   324     20.3   828.6    0.00    1053    79.1
 152   12:40   80.2    12    9.3   318     18.2   828.4    0.00    1077    79.7
 152   12:50   80.6    11   10.4   325     16.4   828.3    0.00    1027    80.0
 152   13:00   81.7    10    8.9   312     15.6   828.2    0.00    1055    80.4
 152   13:10   81.0    10   10.1   334     21.9   828.1    0.00     994    80.7
 152   13:20   81.1    10   10.2   329     18.3   828.1    0.00    1016    80.9
 152   13:30   81.2    10   10.0   334     19.9   828.0    0.00     988    81.0
 152   13:40   80.9     9   11.2   338     18.3   827.9    0.00     971    80.9
 152   13:50   80.4    10    9.8   354     18.8   827.8    0.00     960    81.1
 152   14:00   81.1     9    9.1   353     17.0   827.6    0.00     934    81.8
 152   14:10   80.7     9    8.9   356     15.7   827.6    0.00     895    81.5
 152   14:20   81.4     8    8.7   356     14.1   827.5    0.00     863    81.6
 152   14:30   81.6     9    8.3     0     17.0   827.4    0.00     858    81.9
 152   14:40   81.8     9    9.5   346     17.2   827.4    0.00     834    82.0
 152   14:50   82.2     9    8.1   338     20.8   827.3    0.00     805    82.3
 152   15:00   82.6     9   11.2   329     19.8   827.1    0.00     776    82.4
 152   15:10   83.8     9    9.3   303     17.2   827.1    0.00     753    82.6
 152   15:20   82.6     9    8.3   337     17.5   826.9    0.00     716    82.8
 152   15:30   82.5     9    9.2   357     16.8   826.8    0.00     687    82.6
 152   15:40   82.5    10   10.9   337     17.7   826.7    0.00     654    82.5
 152   15:50   82.9    10    8.7   316     16.9   826.8    0.00     621    82.4
 152   16:00   83.8    10    5.6   301     12.3   826.7    0.00     596    82.2
 152   16:10   82.9    11    9.5   354     21.0   826.7    0.00     533    82.1
 152   16:20   82.2    11    9.1   337     18.3   826.5    0.00     360    81.8
 152   16:30   82.2    11   11.9   345     19.5   826.5    0.00     149    81.5
 152   16:40   81.6    11    9.4   351     15.1   826.5    0.00     120    81.5
 152   16:50   82.3    11    8.1   324     14.5   826.4    0.00     311    81.2
 152   17:00   83.0    10   10.0   327     15.4   826.4    0.00     352    80.9
 152   17:10   82.3    10   11.4   328     15.9   826.4    0.00     330    80.8
 152   17:20   83.0     9    7.7   315     13.2   826.4    0.00     321    80.5
 152   17:30   82.4     9    6.0   344     13.9   826.4    0.00     242    80.4
 152   17:40   82.0     9    9.2   331     15.0   826.5    0.00     250    80.2
 152   17:50   82.0     9    9.6   329     16.4   826.5    0.00     214    80.0
 152   18:00   82.1     9    8.5   320     14.1   826.6    0.00     180    79.9
 152   18:10   81.1    10    8.2   329     12.7   826.6    0.00     143    79.6
 152   18:20   80.6    10    8.4   332     13.3   826.6    0.00     119    79.5
 152   18:30   80.1    10    9.2   328     13.8   826.7    0.00      84    79.4
 152   18:40   78.6    11    9.0   331     12.1   826.7    0.00      54    79.2
 152   18:50   77.4    12    8.2   324     11.7   826.9    0.00      18    79.1
 152   19:00   76.3    12    7.7   322     11.2   826.9    0.00      12    78.8
 152   19:10   74.9    13    5.8   324      8.0   827.0    0.00       7    78.6
 152   19:20   73.1    14    4.1   299      6.2   827.1    0.00       3    78.4

Return to Goldfield, Nevada graphs page.


Western Regional Climate Center,wrcc@dri.edu